Hilo International Airport Hilo US
ICAO: PHTO
IATA: ITO
Category: Medium
Scheduled Services:

Elevation: 38 ft
TransAlt. 18000 ft.

Airport Communications:
APP/DEP:119.7
ATIS:126.4
CTAF:118.1
GND:121.9
HONOLULU RDO:122.6
TWR:118.1

PHTO Zoom In..

Runways:

(A) RW 03 length 5600 ft width 150 ft
---- / hdg 30

(B) RW 08 length 9800 ft width 150 ft
---- / hdg 79

(C) RW 21 length 5600 ft width 150 ft
---- / hdg 210

(D) RW 26 length 9800 ft width 150 ft
ILS 110.70 / hdg 259

Location; PHTO
Day. 21 / Time. 23.53 Zulu
* Altimeter: 29.97
* Temperature: 23° c. 73.4°f.
* Wind from: 190° Speed 05 kn.
Dewpoint: 21° c.
Visibility: 10 Statute Miles.
Clouds: Scattered 1900 ft.
Clouds: Scattered 3500 ft.
Clouds: Overcast 4700 ft.

PHTO 212353Z 19005KT 10SM SCT019 SCT035 OVC047 23/21 A2997 RMK AO2 RAB10E53 SLP145 P0002 60007 T02280206 10261 20211 56027


Wind From 190°
Speed 05 kn.

jpsM music video
CHECK IT OUT

jpsM - It Moves..

 
jpsmedia.com for Web Design  worldairports.se 2018   terms of use